createdAt,value
2022-09-10T00:00:22.135Z,75.50
2022-09-10T00:02:49.866Z,75.19
2022-09-10T00:05:22.848Z,75.66
2022-09-10T00:08:08.618Z,75.62
2022-09-10T00:10:51.166Z,75.58
2022-09-10T00:13:23.427Z,75.30
2022-09-10T00:15:54.113Z,75.89
2022-09-10T00:18:30.719Z,76.63
2022-09-10T00:21:06.980Z,76.03
2022-09-10T00:23:48.704Z,75.12
2022-09-10T00:26:25.083Z,76.61
2022-09-10T00:29:10.537Z,75.83
2022-09-10T00:31:41.254Z,76.59
2022-09-10T00:34:13.372Z,76.38
2022-09-10T00:36:44.773Z,76.06
2022-09-10T00:39:18.595Z,76.65
2022-09-10T00:41:51.006Z,76.19
2022-09-10T00:44:38.248Z,78.10
2022-09-10T00:47:22.653Z,76.88
2022-09-10T00:50:16.800Z,76.68
2022-09-10T00:53:04.142Z,77.41
2022-09-10T00:55:43.046Z,76.49
2022-09-10T00:58:16.240Z,77.01
2022-09-10T01:01:37.421Z,76.17
2022-09-10T01:03:51.136Z,76.33
2022-09-10T01:06:26.177Z,77.06
2022-09-10T01:09:10.174Z,77.23
2022-09-10T01:11:52.711Z,78.71
2022-09-10T01:14:58.459Z,77.55
2022-09-10T01:17:53.000Z,77.99
2022-09-10T01:21:08.952Z,78.02
2022-09-10T01:23:46.156Z,78.60
2022-09-10T01:27:00.025Z,78.38
2022-09-10T01:29:55.356Z,77.87
2022-09-10T01:33:19.014Z,78.42
2022-09-10T01:36:07.926Z,77.80
2022-09-10T01:38:52.866Z,77.52
2022-09-10T01:41:36.096Z,77.63
2022-09-10T01:44:35.637Z,78.02
2022-09-10T01:47:51.352Z,77.84
2022-09-10T01:50:55.958Z,78.02
2022-09-10T01:55:00.848Z,78.75
2022-09-10T01:57:23.597Z,77.86
2022-09-10T02:00:11.542Z,77.94
2022-09-10T02:03:19.280Z,78.58
2022-09-10T02:06:23.880Z,77.16
2022-09-10T02:09:08.976Z,77.07
2022-09-10T02:11:54.339Z,77.38
2022-09-10T02:14:52.487Z,76.57
2022-09-10T02:17:31.434Z,77.14
2022-09-10T02:20:19.036Z,77.25
2022-09-10T02:23:07.524Z,78.11
2022-09-10T02:25:47.965Z,77.02
2022-09-10T02:28:50.829Z,78.93
2022-09-10T02:31:20.056Z,77.81
2022-09-10T02:33:57.984Z,76.96
2022-09-10T02:36:36.143Z,77.38
2022-09-10T02:39:17.828Z,77.91
2022-09-10T02:41:48.436Z,77.81
2022-09-10T02:44:21.221Z,77.76
2022-09-10T02:46:52.831Z,78.00
2022-09-10T02:49:27.355Z,77.56
2022-09-10T02:52:06.738Z,77.53
2022-09-10T02:54:42.493Z,77.82
2022-09-10T02:57:12.520Z,78.04
2022-09-10T02:59:42.430Z,77.65
2022-09-10T03:02:27.543Z,77.67
2022-09-10T03:05:13.499Z,77.69
2022-09-10T03:07:46.807Z,77.87
2022-09-10T03:10:15.600Z,78.45
2022-09-10T03:12:45.915Z,78.53
2022-09-10T03:15:13.187Z,77.95
2022-09-10T03:17:40.931Z,78.42
2022-09-10T03:20:12.034Z,78.26
2022-09-10T03:22:48.284Z,77.96
2022-09-10T03:25:19.799Z,78.72
2022-09-10T03:27:47.504Z,78.59
2022-09-10T03:30:17.025Z,78.52
2022-09-10T03:32:51.332Z,78.28
2022-09-10T03:35:18.902Z,78.00
2022-09-10T03:37:50.976Z,79.35
2022-09-10T03:40:21.226Z,78.22
2022-09-10T03:42:49.015Z,78.46
2022-09-10T03:45:23.725Z,77.88
2022-09-10T03:47:52.272Z,78.31
2022-09-10T03:50:21.979Z,78.44
2022-09-10T03:52:51.555Z,77.98
2022-09-10T03:55:19.699Z,78.14
2022-09-10T03:57:47.304Z,77.87
2022-09-10T04:00:18.176Z,78.19
2022-09-10T04:02:49.116Z,77.49
2022-09-10T04:05:17.856Z,77.18
2022-09-10T04:07:46.648Z,76.94
2022-09-10T04:10:16.395Z,77.05
2022-09-10T04:12:47.052Z,76.41
2022-09-10T04:15:14.392Z,76.23
2022-09-10T04:17:42.548Z,75.88
2022-09-10T04:20:15.608Z,74.43
2022-09-10T04:22:51.481Z,73.97
2022-09-10T04:25:23.064Z,73.99
2022-09-10T04:27:51.425Z,73.88
2022-09-10T04:30:20.005Z,73.39
2022-09-10T04:32:55.020Z,72.76
2022-09-10T04:35:26.814Z,72.46
2022-09-10T04:37:55.775Z,71.45
2022-09-10T04:40:24.372Z,71.29
2022-09-10T04:42:52.709Z,70.48
2022-09-10T04:45:28.627Z,70.02
2022-09-10T04:47:57.202Z,70.14
2022-09-10T04:50:25.135Z,69.38
2022-09-10T04:53:12.912Z,68.84
2022-09-10T04:55:43.630Z,67.60
2022-09-10T04:58:11.897Z,66.94
2022-09-10T05:00:41.375Z,66.04
2022-09-10T05:03:14.823Z,62.73
2022-09-10T05:05:49.792Z,53.54
2022-09-10T05:08:28.572Z,60.59
2022-09-10T05:11:09.233Z,56.90
2022-09-10T05:13:39.910Z,56.94
2022-09-10T05:16:13.536Z,54.57
2022-09-10T05:18:58.309Z,47.69
2022-09-10T05:21:38.375Z,47.51
2022-09-10T05:24:17.003Z,48.25
2022-09-10T05:26:50.913Z,46.78
2022-09-10T05:30:56.880Z,38.25
2022-09-10T05:33:31.543Z,44.05
2022-09-10T05:36:10.377Z,39.59
2022-09-10T05:38:46.993Z,41.10
2022-09-10T05:41:22.573Z,40.00
2022-09-10T05:44:09.936Z,36.91
2022-09-10T05:46:59.544Z,38.70
2022-09-10T05:50:42.822Z,34.06
2022-09-10T05:53:45.638Z,34.00
2022-09-10T05:56:15.872Z,36.83
2022-09-10T05:58:47.797Z,32.99
2022-09-10T06:01:20.616Z,34.46
2022-09-10T06:03:52.218Z,35.46
2022-09-10T06:06:23.262Z,35.17
2022-09-10T06:09:09.541Z,33.40
2022-09-10T06:11:52.120Z,33.72
2022-09-10T06:14:35.991Z,33.48
2022-09-10T06:17:11.472Z,33.10
2022-09-10T06:19:44.866Z,32.77
2022-09-10T06:22:19.098Z,32.71
2022-09-10T06:24:51.058Z,31.67
2022-09-10T06:27:24.140Z,31.35
2022-09-10T06:30:21.759Z,29.29
2022-09-10T06:33:25.522Z,30.91
2022-09-10T06:37:01.997Z,30.42
2022-09-10T06:38:51.718Z,32.53
2022-09-10T06:41:30.780Z,33.89
2022-09-10T06:44:16.862Z,35.55
2022-09-10T06:49:51.181Z,38.11
2022-09-10T06:52:22.264Z,38.16
2022-09-10T06:55:00.566Z,38.69
2022-09-10T06:57:37.035Z,39.32
2022-09-10T07:00:05.139Z,39.41
2022-09-10T07:02:44.945Z,40.20
2022-09-10T07:05:13.844Z,40.09
2022-09-10T07:08:06.247Z,40.80
2022-09-10T07:11:04.218Z,41.02
2022-09-10T07:14:41.235Z,42.33
2022-09-10T07:17:17.283Z,40.93
2022-09-10T07:20:02.683Z,41.16
2022-09-10T07:22:56.408Z,40.77
2022-09-10T07:25:41.375Z,41.12
2022-09-10T07:28:38.282Z,41.31
2022-09-10T07:31:18.917Z,41.65
2022-09-10T07:33:51.472Z,41.15
2022-09-10T07:36:29.873Z,41.06
2022-09-10T07:39:27.634Z,41.19
2022-09-10T07:42:03.753Z,41.23
2022-09-10T07:44:39.597Z,41.02
2022-09-10T07:47:10.517Z,41.19
2022-09-10T07:49:45.706Z,40.32
2022-09-10T07:52:22.207Z,39.79
2022-09-10T07:54:54.946Z,39.11
2022-09-10T07:57:23.279Z,38.24
2022-09-10T07:59:55.904Z,36.06
2022-09-10T08:07:12.618Z,31.31
2022-09-10T08:09:46.188Z,30.80
2022-09-10T08:15:29.766Z,29.02
2022-09-10T08:18:00.883Z,28.49
2022-09-10T08:20:36.004Z,27.85
2022-09-10T08:23:12.175Z,27.44
2022-09-10T08:25:51.741Z,25.92
2022-09-10T08:28:25.511Z,26.57
2022-09-10T08:31:13.116Z,25.61
2022-09-10T08:33:52.336Z,25.23
2022-09-10T08:36:32.875Z,25.78
2022-09-10T08:39:24.527Z,24.39
2022-09-10T08:42:17.572Z,23.33
2022-09-10T08:45:07.672Z,23.49
2022-09-10T08:47:56.881Z,23.87
2022-09-10T08:50:54.925Z,23.66
2022-09-10T08:53:39.650Z,23.84
2022-09-10T08:56:15.505Z,23.69
2022-09-10T08:58:49.767Z,23.76
2022-09-10T09:01:40.730Z,23.50
2022-09-10T09:04:40.975Z,23.46
2022-09-10T09:07:21.813Z,22.74
2022-09-10T09:09:57.625Z,24.00
2022-09-10T09:12:45.375Z,22.54
2022-09-10T09:16:05.761Z,22.80
2022-09-10T09:19:08.868Z,22.53
2022-09-10T09:21:50.626Z,23.77
2022-09-10T09:25:03.829Z,23.97
2022-09-10T09:27:36.756Z,24.06
2022-09-10T09:30:07.299Z,23.90
2022-09-10T09:32:42.720Z,23.60
2022-09-10T09:35:32.751Z,23.24
2022-09-10T09:39:18.760Z,22.96
2022-09-10T09:42:06.069Z,23.01
2022-09-10T09:44:46.865Z,22.65
2022-09-10T09:47:14.344Z,23.05
2022-09-10T09:49:43.980Z,22.84
2022-09-10T09:52:32.468Z,21.67
2022-09-10T09:55:15.196Z,22.13
2022-09-10T09:57:47.449Z,22.96
2022-09-10T10:00:36.803Z,22.93
2022-09-10T10:03:28.302Z,23.03
2022-09-10T10:06:10.647Z,23.31
2022-09-10T10:08:43.797Z,23.24
2022-09-10T10:11:20.344Z,23.37
2022-09-10T10:13:51.690Z,24.26
2022-09-10T10:16:35.939Z,25.22
2022-09-10T10:19:07.351Z,25.10
2022-09-10T10:21:47.349Z,26.43
2022-09-10T10:24:36.310Z,27.60
2022-09-10T10:27:04.302Z,27.63
2022-09-10T10:29:40.170Z,28.30
2022-09-10T10:32:17.153Z,28.41
2022-09-10T10:35:20.018Z,29.13
2022-09-10T10:38:14.057Z,29.75
2022-09-10T10:40:46.793Z,29.40
2022-09-10T10:43:40.031Z,30.80
2022-09-10T10:46:22.504Z,30.99
2022-09-10T10:49:17.917Z,31.10
2022-09-10T10:51:45.240Z,30.16
2022-09-10T10:54:43.047Z,31.12
2022-09-10T10:57:38.460Z,31.54
2022-09-10T11:00:15.990Z,31.42
2022-09-10T11:02:56.254Z,31.16
2022-09-10T11:05:35.247Z,32.37
2022-09-10T11:08:13.303Z,32.58
2022-09-10T11:10:47.922Z,31.61
2022-09-10T11:13:26.211Z,31.37
2022-09-10T11:16:05.909Z,31.02
2022-09-10T11:18:47.912Z,30.53
2022-09-10T11:21:55.013Z,30.03
2022-09-10T11:24:33.997Z,28.65
2022-09-10T11:27:36.054Z,27.55
2022-09-10T11:30:25.608Z,26.94
2022-09-10T11:33:19.168Z,27.14
2022-09-10T11:35:55.766Z,26.38
2022-09-10T11:38:31.444Z,25.75
2022-09-10T11:41:16.471Z,25.78
2022-09-10T11:43:52.600Z,25.93
2022-09-10T11:46:26.267Z,26.52
2022-09-10T11:49:11.255Z,25.34
2022-09-10T11:51:41.324Z,25.73
2022-09-10T11:54:29.438Z,24.49
2022-09-10T11:57:27.064Z,24.47
2022-09-10T12:00:11.953Z,23.87
2022-09-10T12:02:57.590Z,24.03
2022-09-10T12:05:26.138Z,24.88
2022-09-10T12:08:03.232Z,23.76
2022-09-10T12:10:55.760Z,23.85
2022-09-10T12:13:23.085Z,24.47
2022-09-10T12:15:58.591Z,23.65
2022-09-10T12:18:34.641Z,23.93
2022-09-10T12:21:15.617Z,23.79
2022-09-10T12:23:44.286Z,24.13
2022-09-10T12:26:20.808Z,24.09
2022-09-10T12:29:01.615Z,23.75
2022-09-10T12:32:07.025Z,23.53
2022-09-10T12:34:35.534Z,23.55
2022-09-10T12:37:02.850Z,23.45
2022-09-10T12:39:31.234Z,23.73
2022-09-10T12:42:25.614Z,23.94
2022-09-10T12:44:52.878Z,25.12
2022-09-10T12:47:41.447Z,25.98
2022-09-10T12:50:30.900Z,27.77
2022-09-10T12:53:21.238Z,29.18
2022-09-10T12:56:00.015Z,29.46
2022-09-10T12:58:46.351Z,29.85
2022-09-10T13:01:46.509Z,30.29
2022-09-10T13:04:28.883Z,30.36
2022-09-10T13:07:21.570Z,30.36
2022-09-10T13:10:21.726Z,30.64
2022-09-10T13:12:55.453Z,30.91
2022-09-10T13:15:30.160Z,31.34
2022-09-10T13:17:57.427Z,30.66
2022-09-10T13:20:31.146Z,31.42
2022-09-10T13:23:04.291Z,31.61
2022-09-10T13:25:40.304Z,31.97
2022-09-10T13:28:29.420Z,32.47
2022-09-10T13:31:09.214Z,32.39
2022-09-10T13:33:53.104Z,32.32
2022-09-10T13:36:45.654Z,31.37
2022-09-10T13:39:47.758Z,30.77
2022-09-10T13:42:36.361Z,29.34
2022-09-10T13:45:34.264Z,27.69
2022-09-10T13:48:22.370Z,26.74
2022-09-10T13:51:09.204Z,27.32
2022-09-10T13:53:41.567Z,27.27
2022-09-10T13:56:33.640Z,28.26
2022-09-10T13:59:04.032Z,29.45
2022-09-10T14:01:54.350Z,30.41
2022-09-10T14:04:23.237Z,30.35
2022-09-10T14:06:51.058Z,31.30
2022-09-10T14:09:18.626Z,32.00
2022-09-10T14:11:46.908Z,32.78
2022-09-10T14:14:38.254Z,34.00
2022-09-10T14:17:14.477Z,34.33
2022-09-10T14:19:51.719Z,34.75
2022-09-10T14:22:26.036Z,34.71
2022-09-10T14:24:55.578Z,34.58
2022-09-10T14:27:36.010Z,35.59
2022-09-10T14:30:23.743Z,36.42
2022-09-10T14:32:52.456Z,35.46
2022-09-10T14:35:39.562Z,37.24
2022-09-10T14:38:34.809Z,36.90
2022-09-10T14:41:08.713Z,36.26
2022-09-10T14:43:39.150Z,36.72
2022-09-10T14:46:10.650Z,36.79
2022-09-10T14:49:01.595Z,37.72
2022-09-10T14:51:29.097Z,36.86
2022-09-10T14:53:58.441Z,37.54
2022-09-10T14:56:28.912Z,38.55
2022-09-10T14:59:02.911Z,37.98
2022-09-10T15:01:31.320Z,37.67
2022-09-10T15:04:02.350Z,37.76
2022-09-10T15:06:31.882Z,38.57
2022-09-10T15:09:00.942Z,38.52
2022-09-10T15:11:29.558Z,38.49
2022-09-10T15:13:59.416Z,38.47
2022-09-10T15:16:27.820Z,38.40
2022-09-10T15:18:56.537Z,38.82
2022-09-10T15:21:26.153Z,39.00
2022-09-10T15:23:54.131Z,39.34
2022-09-10T15:26:21.639Z,39.58
2022-09-10T15:28:52.959Z,40.16
2022-09-10T15:31:20.259Z,39.87
2022-09-10T15:33:47.536Z,40.16
2022-09-10T15:36:14.744Z,40.18
2022-09-10T15:38:42.021Z,40.90
2022-09-10T15:41:13.894Z,42.20
2022-09-10T15:43:43.260Z,42.13
2022-09-10T15:46:12.649Z,41.45
2022-09-10T15:48:43.478Z,41.68
2022-09-10T15:51:15.196Z,41.81
2022-09-10T15:53:43.504Z,41.59
2022-09-10T15:56:12.156Z,42.10
2022-09-10T15:58:39.814Z,41.84
2022-09-10T16:01:12.468Z,42.76
2022-09-10T16:03:46.355Z,43.82
2022-09-10T16:06:14.895Z,42.76
2022-09-10T16:08:55.505Z,44.36
2022-09-10T16:11:25.155Z,44.07
2022-09-10T16:13:55.257Z,43.98
2022-09-10T16:16:24.469Z,44.52
2022-09-10T16:18:58.294Z,45.48
2022-09-10T16:21:28.907Z,45.12
2022-09-10T16:23:58.627Z,45.22
2022-09-10T16:26:29.676Z,46.19
2022-09-10T16:28:59.358Z,45.98
2022-09-10T16:31:28.143Z,46.22
2022-09-10T16:33:58.925Z,46.88
2022-09-10T16:36:27.665Z,47.25
2022-09-10T16:38:56.990Z,47.45
2022-09-10T16:41:26.365Z,47.67
2022-09-10T16:43:55.270Z,47.94
2022-09-10T16:46:22.639Z,47.90
2022-09-10T16:48:53.348Z,48.30
2022-09-10T16:51:25.678Z,48.60
2022-09-10T16:54:04.169Z,49.46
2022-09-10T16:56:35.177Z,49.50
2022-09-10T16:59:10.245Z,49.31
2022-09-10T17:01:38.570Z,49.42
2022-09-10T17:04:07.611Z,49.52
2022-09-10T17:06:36.022Z,50.07
2022-09-10T17:09:04.628Z,50.30
2022-09-10T17:11:33.245Z,49.93
2022-09-10T17:14:03.568Z,50.64
2022-09-10T17:16:33.858Z,50.81
2022-09-10T17:19:07.224Z,50.71
2022-09-10T17:21:36.591Z,50.75
2022-09-10T17:24:06.747Z,51.09
2022-09-10T17:26:35.160Z,51.78
2022-09-10T17:29:14.936Z,52.60
2022-09-10T17:31:42.712Z,51.37
2022-09-10T17:34:14.245Z,51.94
2022-09-10T17:36:45.725Z,52.38
2022-09-10T17:39:14.066Z,52.26
2022-09-10T17:41:41.641Z,52.13
2022-09-10T17:44:11.408Z,52.54
2022-09-10T17:46:38.976Z,52.37
2022-09-10T17:49:07.314Z,53.06
2022-09-10T17:51:35.589Z,52.94
2022-09-10T17:54:03.509Z,53.14
2022-09-10T17:56:31.364Z,53.01
2022-09-10T17:59:02.250Z,54.51
2022-09-10T18:01:40.507Z,54.33
2022-09-10T18:04:08.242Z,56.17
2022-09-10T18:06:36.890Z,53.94
2022-09-10T18:09:05.862Z,54.34
2022-09-10T18:11:36.468Z,54.42
2022-09-10T18:14:04.399Z,54.33
2022-09-10T18:16:33.819Z,55.04
2022-09-10T18:19:13.832Z,56.17
2022-09-10T18:21:42.172Z,55.25
2022-09-10T18:24:24.247Z,57.17
2022-09-10T18:26:57.483Z,55.80
2022-09-10T18:29:31.331Z,56.68
2022-09-10T18:32:01.291Z,55.83
2022-09-10T18:34:29.994Z,56.27
2022-09-10T18:37:00.299Z,56.57
2022-09-10T18:39:30.509Z,56.40
2022-09-10T18:42:00.792Z,56.18
2022-09-10T18:44:33.265Z,56.83
2022-09-10T18:47:00.686Z,56.39
2022-09-10T18:49:30.013Z,56.77
2022-09-10T18:51:57.528Z,56.68
2022-09-10T18:54:30.236Z,57.42
2022-09-10T18:56:58.222Z,56.97
2022-09-10T18:59:27.032Z,57.57
2022-09-10T19:01:54.605Z,57.60
2022-09-10T19:04:26.303Z,57.91
2022-09-10T19:06:54.373Z,57.86
2022-09-10T19:09:25.926Z,59.29
2022-09-10T19:11:55.166Z,58.45
2022-09-10T19:14:27.753Z,59.25
2022-09-10T19:16:56.585Z,58.24
2022-09-10T19:19:32.040Z,60.09
2022-09-10T19:22:03.551Z,59.51
2022-09-10T19:25:01.073Z,59.33
2022-09-10T19:27:18.530Z,59.31
2022-09-10T19:29:47.452Z,59.23
2022-09-10T19:32:15.380Z,59.25
2022-09-10T19:34:42.891Z,59.65
2022-09-10T19:37:10.247Z,59.95
2022-09-10T19:39:37.829Z,60.28
2022-09-10T19:42:06.914Z,60.25
2022-09-10T19:44:34.512Z,60.49
2022-09-10T19:47:04.273Z,60.28
2022-09-10T19:49:31.819Z,60.70
2022-09-10T19:51:59.030Z,60.66
2022-09-10T19:54:28.464Z,61.07
2022-09-10T19:56:56.754Z,61.14
2022-09-10T19:59:24.064Z,61.27
2022-09-10T20:01:51.579Z,61.30
2022-09-10T20:04:19.121Z,61.39
2022-09-10T20:06:47.840Z,61.78
2022-09-10T20:09:16.458Z,61.84
2022-09-10T20:11:43.652Z,62.11
2022-09-10T20:14:13.713Z,62.92
2022-09-10T20:16:43.454Z,62.48
2022-09-10T20:19:13.458Z,62.34
2022-09-10T20:21:42.518Z,62.48
2022-09-10T20:24:11.460Z,62.38
2022-09-10T20:26:41.288Z,62.47
2022-09-10T20:29:12.891Z,62.97
2022-09-10T20:31:41.622Z,62.60
2022-09-10T20:34:13.040Z,63.69
2022-09-10T20:36:42.446Z,62.68
2022-09-10T20:39:14.158Z,64.09
2022-09-10T20:41:42.181Z,63.24
2022-09-10T20:44:13.314Z,63.43
2022-09-10T20:46:44.199Z,63.14
2022-09-10T20:49:13.961Z,64.18
2022-09-10T20:51:41.956Z,63.54
2022-09-10T20:54:14.691Z,64.80
2022-09-10T20:56:42.407Z,63.76
2022-09-10T20:59:15.788Z,65.04
2022-09-10T21:01:44.661Z,64.27
2022-09-10T21:04:13.423Z,63.99
2022-09-10T21:06:40.907Z,64.53
2022-09-10T21:09:14.545Z,64.76
2022-09-10T21:11:41.875Z,64.68
2022-09-10T21:14:09.850Z,64.55
2022-09-10T21:16:40.230Z,64.83
2022-09-10T21:19:32.693Z,66.66
2022-09-10T21:21:59.899Z,64.70
2022-09-10T21:24:27.612Z,64.88
2022-09-10T21:26:55.766Z,64.91
2022-09-10T21:29:23.415Z,65.02
2022-09-10T21:31:54.915Z,65.36
2022-09-10T21:34:22.018Z,64.59
2022-09-10T21:36:49.689Z,64.89
2022-09-10T21:39:17.903Z,65.56
2022-09-10T21:41:47.638Z,65.73
2022-09-10T21:44:23.237Z,66.81
2022-09-10T21:46:53.905Z,65.80
2022-09-10T21:49:21.283Z,65.22
2022-09-10T21:51:49.066Z,65.46
2022-09-10T21:54:20.796Z,65.56
2022-09-10T21:56:52.501Z,66.88
2022-09-10T21:59:21.808Z,66.16
2022-09-10T22:01:49.358Z,65.96
2022-09-10T22:04:22.076Z,65.81
2022-09-10T22:06:50.229Z,66.16
2022-09-10T22:09:24.465Z,67.03
2022-09-10T22:11:54.522Z,66.57
2022-09-10T22:14:24.420Z,66.21
2022-09-10T22:16:52.765Z,66.33
2022-09-10T22:19:24.667Z,67.11
2022-09-10T22:21:54.412Z,68.96
2022-09-10T22:24:22.660Z,66.47
2022-09-10T22:26:50.350Z,67.07
2022-09-10T22:29:20.601Z,67.36
2022-09-10T22:31:48.266Z,67.26
2022-09-10T22:34:17.333Z,67.09
2022-09-10T22:36:46.387Z,67.28
2022-09-10T22:39:21.522Z,68.78
2022-09-10T22:41:50.509Z,68.09
2022-09-10T22:44:19.517Z,68.01
2022-09-10T22:46:47.176Z,68.05
2022-09-10T22:49:16.598Z,68.52
2022-09-10T22:51:44.840Z,68.23
2022-09-10T22:54:13.426Z,68.33
2022-09-10T22:56:40.653Z,67.85
2022-09-10T22:59:12.787Z,69.26
2022-09-10T23:01:40.858Z,68.25
2022-09-10T23:04:10.218Z,68.25
2022-09-10T23:06:38.807Z,68.37
2022-09-10T23:09:13.125Z,68.90
2022-09-10T23:11:41.335Z,68.62
2022-09-10T23:14:13.211Z,69.50
2022-09-10T23:16:42.607Z,69.40
2022-09-10T23:19:14.664Z,69.16
2022-09-10T23:21:43.309Z,71.53
2022-09-10T23:24:17.245Z,69.08
2022-09-10T23:26:46.244Z,68.59
2022-09-10T23:29:18.926Z,68.64
2022-09-10T23:31:48.017Z,69.07
2022-09-10T23:34:20.675Z,70.01
2022-09-10T23:37:07.486Z,68.78
2022-09-10T23:39:34.784Z,69.14
2022-09-10T23:42:02.383Z,69.48
2022-09-10T23:44:29.582Z,69.63
2022-09-10T23:46:57.713Z,69.46
2022-09-10T23:49:25.320Z,69.47
2022-09-10T23:51:52.923Z,68.90
2022-09-10T23:54:20.435Z,69.08
2022-09-10T23:56:47.776Z,69.40
2022-09-10T23:59:15.609Z,69.45
